sensor_id;sensor_type;location;lat;lon;timestamp;P1;durP1;ratioP1;P2;durP2;ratioP2
17065;SDS011;23120;52.336;21.182;2022-07-18T00:00:37;2.63;;;1.80;;
17065;SDS011;23120;52.336;21.182;2022-07-18T00:03:05;1.47;;;1.37;;
17065;SDS011;23120;52.336;21.182;2022-07-18T00:05:31;2.93;;;1.90;;
17065;SDS011;23120;52.336;21.182;2022-07-18T00:07:58;4.40;;;1.67;;
17065;SDS011;23120;52.336;21.182;2022-07-18T00:10:25;2.77;;;2.00;;
17065;SDS011;23120;52.336;21.182;2022-07-18T00:12:52;2.70;;;1.50;;
17065;SDS011;23120;52.336;21.182;2022-07-18T00:15:18;2.33;;;1.57;;
17065;SDS011;23120;52.336;21.182;2022-07-18T00:17:45;3.97;;;1.80;;
17065;SDS011;23120;52.336;21.182;2022-07-18T00:20:13;3.23;;;1.70;;
17065;SDS011;23120;52.336;21.182;2022-07-18T00:22:40;3.40;;;1.73;;
17065;SDS011;23120;52.336;21.182;2022-07-18T00:25:07;3.13;;;1.97;;
17065;SDS011;23120;52.336;21.182;2022-07-18T00:27:34;3.23;;;1.90;;
17065;SDS011;23120;52.336;21.182;2022-07-18T00:30:01;3.10;;;1.30;;
17065;SDS011;23120;52.336;21.182;2022-07-18T00:32:28;4.93;;;1.67;;
17065;SDS011;23120;52.336;21.182;2022-07-18T00:34:55;2.63;;;1.37;;
17065;SDS011;23120;52.336;21.182;2022-07-18T00:37:23;3.60;;;1.60;;
17065;SDS011;23120;52.336;21.182;2022-07-18T00:39:50;2.03;;;1.40;;
17065;SDS011;23120;52.336;21.182;2022-07-18T00:42:17;3.20;;;1.67;;
17065;SDS011;23120;52.336;21.182;2022-07-18T00:44:43;1.83;;;1.57;;
17065;SDS011;23120;52.336;21.182;2022-07-18T00:47:10;2.47;;;1.73;;
17065;SDS011;23120;52.336;21.182;2022-07-18T00:49:37;2.13;;;1.83;;
17065;SDS011;23120;52.336;21.182;2022-07-18T00:52:04;2.20;;;1.97;;
17065;SDS011;23120;52.336;21.182;2022-07-18T00:54:32;2.80;;;1.80;;
17065;SDS011;23120;52.336;21.182;2022-07-18T00:56:59;3.70;;;1.90;;
17065;SDS011;23120;52.336;21.182;2022-07-18T00:59:26;3.40;;;1.47;;
17065;SDS011;23120;52.336;21.182;2022-07-18T01:02:08;2.03;;;1.83;;
17065;SDS011;23120;52.336;21.182;2022-07-18T01:04:34;2.97;;;2.03;;
17065;SDS011;23120;52.336;21.182;2022-07-18T01:07:01;1.97;;;1.73;;
17065;SDS011;23120;52.336;21.182;2022-07-18T01:09:28;2.10;;;1.83;;
17065;SDS011;23120;52.336;21.182;2022-07-18T01:11:57;2.37;;;2.07;;
17065;SDS011;23120;52.336;21.182;2022-07-18T01:14:23;2.60;;;2.00;;
17065;SDS011;23120;52.336;21.182;2022-07-18T01:16:51;3.03;;;1.90;;
17065;SDS011;23120;52.336;21.182;2022-07-18T01:19:18;4.10;;;2.00;;
17065;SDS011;23120;52.336;21.182;2022-07-18T01:21:47;3.00;;;2.00;;
17065;SDS011;23120;52.336;21.182;2022-07-18T01:24:14;2.17;;;1.87;;
17065;SDS011;23120;52.336;21.182;2022-07-18T01:26:40;2.20;;;1.83;;
17065;SDS011;23120;52.336;21.182;2022-07-18T01:29:07;2.27;;;2.00;;
17065;SDS011;23120;52.336;21.182;2022-07-18T01:31:34;3.87;;;2.20;;
17065;SDS011;23120;52.336;21.182;2022-07-18T01:34:01;2.30;;;1.90;;
17065;SDS011;23120;52.336;21.182;2022-07-18T01:36:28;3.73;;;2.10;;
17065;SDS011;23120;52.336;21.182;2022-07-18T01:38:56;2.60;;;1.83;;
17065;SDS011;23120;52.336;21.182;2022-07-18T01:41:23;2.17;;;1.87;;
17065;SDS011;23120;52.336;21.182;2022-07-18T01:43:50;2.70;;;2.03;;
17065;SDS011;23120;52.336;21.182;2022-07-18T01:46:16;2.03;;;1.83;;
17065;SDS011;23120;52.336;21.182;2022-07-18T01:48:43;3.83;;;2.00;;
17065;SDS011;23120;52.336;21.182;2022-07-18T01:51:10;2.13;;;1.90;;
17065;SDS011;23120;52.336;21.182;2022-07-18T01:53:37;4.57;;;2.13;;
17065;SDS011;23120;52.336;21.182;2022-07-18T01:56:06;2.80;;;2.00;;
17065;SDS011;23120;52.336;21.182;2022-07-18T01:58:34;4.30;;;1.80;;
17065;SDS011;23120;52.336;21.182;2022-07-18T02:01:00;1.90;;;1.80;;
17065;SDS011;23120;52.336;21.182;2022-07-18T02:03:27;2.77;;;1.90;;
17065;SDS011;23120;52.336;21.182;2022-07-18T02:05:54;2.10;;;1.90;;
17065;SDS011;23120;52.336;21.182;2022-07-18T02:08:21;2.07;;;1.97;;
17065;SDS011;23120;52.336;21.182;2022-07-18T02:10:47;3.30;;;1.90;;
17065;SDS011;23120;52.336;21.182;2022-07-18T02:13:15;3.00;;;2.20;;
17065;SDS011;23120;52.336;21.182;2022-07-18T02:15:45;3.87;;;1.80;;
17065;SDS011;23120;52.336;21.182;2022-07-18T02:18:12;2.27;;;2.13;;
17065;SDS011;23120;52.336;21.182;2022-07-18T02:20:39;2.00;;;1.80;;
17065;SDS011;23120;52.336;21.182;2022-07-18T02:23:06;1.87;;;1.77;;
17065;SDS011;23120;52.336;21.182;2022-07-18T02:25:33;2.37;;;2.00;;
17065;SDS011;23120;52.336;21.182;2022-07-18T02:28:00;2.60;;;1.90;;
17065;SDS011;23120;52.336;21.182;2022-07-18T02:30:28;2.40;;;1.90;;
17065;SDS011;23120;52.336;21.182;2022-07-18T02:32:56;2.37;;;2.17;;
17065;SDS011;23120;52.336;21.182;2022-07-18T02:35:22;2.03;;;1.80;;
17065;SDS011;23120;52.336;21.182;2022-07-18T02:37:49;2.20;;;2.00;;
17065;SDS011;23120;52.336;21.182;2022-07-18T02:40:16;2.80;;;1.90;;
17065;SDS011;23120;52.336;21.182;2022-07-18T02:42:43;3.47;;;2.30;;
17065;SDS011;23120;52.336;21.182;2022-07-18T02:45:10;2.20;;;2.00;;
17065;SDS011;23120;52.336;21.182;2022-07-18T02:47:39;2.67;;;1.70;;
17065;SDS011;23120;52.336;21.182;2022-07-18T02:50:06;3.17;;;1.90;;
17065;SDS011;23120;52.336;21.182;2022-07-18T02:52:34;3.17;;;2.23;;
17065;SDS011;23120;52.336;21.182;2022-07-18T02:55:01;2.80;;;1.87;;
17065;SDS011;23120;52.336;21.182;2022-07-18T02:57:29;3.67;;;2.10;;
17065;SDS011;23120;52.336;21.182;2022-07-18T02:59:55;2.20;;;2.00;;
17065;SDS011;23120;52.336;21.182;2022-07-18T03:02:22;3.77;;;2.20;;
17065;SDS011;23120;52.336;21.182;2022-07-18T03:04:50;2.40;;;2.20;;
17065;SDS011;23120;52.336;21.182;2022-07-18T03:07:17;2.40;;;2.20;;
17065;SDS011;23120;52.336;21.182;2022-07-18T03:09:44;2.13;;;1.87;;
17065;SDS011;23120;52.336;21.182;2022-07-18T03:12:11;2.50;;;2.10;;
17065;SDS011;23120;52.336;21.182;2022-07-18T03:14:38;2.97;;;2.27;;
17065;SDS011;23120;52.336;21.182;2022-07-18T03:17:05;3.47;;;2.33;;
17065;SDS011;23120;52.336;21.182;2022-07-18T03:19:31;2.87;;;2.20;;
17065;SDS011;23120;52.336;21.182;2022-07-18T03:22:00;2.17;;;2.07;;
17065;SDS011;23120;52.336;21.182;2022-07-18T03:24:27;2.13;;;2.00;;
17065;SDS011;23120;52.336;21.182;2022-07-18T03:26:55;2.77;;;2.20;;
17065;SDS011;23120;52.336;21.182;2022-07-18T03:29:22;2.83;;;2.50;;
17065;SDS011;23120;52.336;21.182;2022-07-18T03:31:49;2.50;;;2.30;;
17065;SDS011;23120;52.336;21.182;2022-07-18T03:34:16;2.63;;;2.37;;
17065;SDS011;23120;52.336;21.182;2022-07-18T03:36:43;2.23;;;2.00;;
17065;SDS011;23120;52.336;21.182;2022-07-18T03:39:11;2.97;;;2.60;;
17065;SDS011;23120;52.336;21.182;2022-07-18T03:41:38;3.13;;;2.30;;
17065;SDS011;23120;52.336;21.182;2022-07-18T03:44:05;3.27;;;2.43;;
17065;SDS011;23120;52.336;21.182;2022-07-18T03:46:32;3.93;;;2.53;;
17065;SDS011;23120;52.336;21.182;2022-07-18T03:48:59;2.53;;;2.33;;
17065;SDS011;23120;52.336;21.182;2022-07-18T03:51:26;3.53;;;2.37;;
17065;SDS011;23120;52.336;21.182;2022-07-18T03:53:52;3.07;;;2.03;;
17065;SDS011;23120;52.336;21.182;2022-07-18T03:56:20;2.50;;;2.30;;
17065;SDS011;23120;52.336;21.182;2022-07-18T03:58:47;4.93;;;2.33;;
17065;SDS011;23120;52.336;21.182;2022-07-18T04:01:14;3.07;;;2.37;;
17065;SDS011;23120;52.336;21.182;2022-07-18T04:03:41;2.37;;;2.17;;
17065;SDS011;23120;52.336;21.182;2022-07-18T04:06:07;3.63;;;2.53;;
17065;SDS011;23120;52.336;21.182;2022-07-18T04:08:34;2.83;;;2.20;;
17065;SDS011;23120;52.336;21.182;2022-07-18T04:11:01;2.70;;;2.50;;
17065;SDS011;23120;52.336;21.182;2022-07-18T04:13:29;5.20;;;2.60;;
17065;SDS011;23120;52.336;21.182;2022-07-18T04:15:56;2.50;;;2.30;;
17065;SDS011;23120;52.336;21.182;2022-07-18T04:18:23;2.70;;;2.50;;
17065;SDS011;23120;52.336;21.182;2022-07-18T04:20:49;2.43;;;2.23;;
17065;SDS011;23120;52.336;21.182;2022-07-18T04:23:16;2.67;;;2.47;;
17065;SDS011;23120;52.336;21.182;2022-07-18T04:25:43;2.47;;;2.27;;
17065;SDS011;23120;52.336;21.182;2022-07-18T04:28:11;2.80;;;2.17;;
17065;SDS011;23120;52.336;21.182;2022-07-18T04:30:41;2.30;;;2.10;;
17065;SDS011;23120;52.336;21.182;2022-07-18T04:33:09;2.90;;;2.60;;
17065;SDS011;23120;52.336;21.182;2022-07-18T04:35:36;2.97;;;2.27;;
17065;SDS011;23120;52.336;21.182;2022-07-18T04:38:04;3.13;;;2.37;;
17065;SDS011;23120;52.336;21.182;2022-07-18T04:40:32;2.60;;;2.40;;
17065;SDS011;23120;52.336;21.182;2022-07-18T04:42:59;2.87;;;2.30;;
17065;SDS011;23120;52.336;21.182;2022-07-18T04:45:26;3.20;;;2.20;;
17065;SDS011;23120;52.336;21.182;2022-07-18T04:47:54;2.53;;;2.33;;
17065;SDS011;23120;52.336;21.182;2022-07-18T04:50:21;2.70;;;2.50;;
17065;SDS011;23120;52.336;21.182;2022-07-18T04:52:49;5.03;;;2.73;;
17065;SDS011;23120;52.336;21.182;2022-07-18T04:55:16;2.20;;;2.00;;
17065;SDS011;23120;52.336;21.182;2022-07-18T04:57:45;2.20;;;2.10;;
17065;SDS011;23120;52.336;21.182;2022-07-18T05:00:14;2.80;;;2.37;;
17065;SDS011;23120;52.336;21.182;2022-07-18T05:02:43;2.40;;;2.20;;
17065;SDS011;23120;52.336;21.182;2022-07-18T05:05:13;4.13;;;3.50;;
17065;SDS011;23120;52.336;21.182;2022-07-18T05:07:42;3.53;;;2.70;;
17065;SDS011;23120;52.336;21.182;2022-07-18T05:10:10;3.23;;;2.73;;
17065;SDS011;23120;52.336;21.182;2022-07-18T05:12:39;3.10;;;2.20;;
17065;SDS011;23120;52.336;21.182;2022-07-18T05:15:09;2.57;;;2.37;;
17065;SDS011;23120;52.336;21.182;2022-07-18T05:17:36;3.33;;;2.13;;
17065;SDS011;23120;52.336;21.182;2022-07-18T05:20:04;3.73;;;2.57;;
17065;SDS011;23120;52.336;21.182;2022-07-18T05:22:33;2.57;;;2.37;;
17065;SDS011;23120;52.336;21.182;2022-07-18T05:25:01;2.73;;;2.30;;
17065;SDS011;23120;52.336;21.182;2022-07-18T05:27:28;2.77;;;2.40;;
17065;SDS011;23120;52.336;21.182;2022-07-18T05:29:55;3.83;;;2.27;;
17065;SDS011;23120;52.336;21.182;2022-07-18T05:32:24;2.70;;;2.30;;
17065;SDS011;23120;52.336;21.182;2022-07-18T05:34:51;2.90;;;2.60;;
17065;SDS011;23120;52.336;21.182;2022-07-18T05:37:17;3.07;;;2.30;;
17065;SDS011;23120;52.336;21.182;2022-07-18T05:39:46;3.07;;;2.10;;
17065;SDS011;23120;52.336;21.182;2022-07-18T05:42:13;2.57;;;2.37;;
17065;SDS011;23120;52.336;21.182;2022-07-18T05:44:40;2.53;;;2.33;;
17065;SDS011;23120;52.336;21.182;2022-07-18T05:47:07;2.80;;;2.43;;
17065;SDS011;23120;52.336;21.182;2022-07-18T05:49:34;2.83;;;2.30;;
17065;SDS011;23120;52.336;21.182;2022-07-18T05:52:00;2.93;;;2.40;;
17065;SDS011;23120;52.336;21.182;2022-07-18T05:54:28;2.10;;;2.00;;
17065;SDS011;23120;52.336;21.182;2022-07-18T05:56:56;2.80;;;2.30;;
17065;SDS011;23120;52.336;21.182;2022-07-18T05:59:22;2.37;;;2.17;;
17065;SDS011;23120;52.336;21.182;2022-07-18T06:01:49;2.80;;;2.13;;
17065;SDS011;23120;52.336;21.182;2022-07-18T06:04:16;2.87;;;1.90;;
17065;SDS011;23120;52.336;21.182;2022-07-18T06:06:43;4.50;;;2.60;;
17065;SDS011;23120;52.336;21.182;2022-07-18T06:09:10;1.87;;;1.73;;
17065;SDS011;23120;52.336;21.182;2022-07-18T06:11:37;4.57;;;2.60;;
17065;SDS011;23120;52.336;21.182;2022-07-18T06:14:05;4.13;;;2.40;;
17065;SDS011;23120;52.336;21.182;2022-07-18T06:16:32;2.67;;;2.07;;
17065;SDS011;23120;52.336;21.182;2022-07-18T06:18:59;2.07;;;1.87;;
17065;SDS011;23120;52.336;21.182;2022-07-18T06:21:26;2.53;;;1.93;;
17065;SDS011;23120;52.336;21.182;2022-07-18T06:23:53;5.87;;;2.03;;
17065;SDS011;23120;52.336;21.182;2022-07-18T06:26:20;2.57;;;2.10;;
17065;SDS011;23120;52.336;21.182;2022-07-18T06:28:47;2.10;;;2.00;;
17065;SDS011;23120;52.336;21.182;2022-07-18T06:31:15;2.77;;;2.10;;
17065;SDS011;23120;52.336;21.182;2022-07-18T06:33:42;2.33;;;1.90;;
17065;SDS011;23120;52.336;21.182;2022-07-18T06:36:09;2.30;;;2.00;;
17065;SDS011;23120;52.336;21.182;2022-07-18T06:38:37;3.43;;;2.03;;
17065;SDS011;23120;52.336;21.182;2022-07-18T06:41:04;2.10;;;1.87;;
17065;SDS011;23120;52.336;21.182;2022-07-18T06:43:31;2.87;;;1.90;;
17065;SDS011;23120;52.336;21.182;2022-07-18T06:45:57;3.73;;;2.00;;
17065;SDS011;23120;52.336;21.182;2022-07-18T06:48:25;3.30;;;1.73;;
17065;SDS011;23120;52.336;21.182;2022-07-18T06:50:58;1.83;;;1.67;;
17065;SDS011;23120;52.336;21.182;2022-07-18T06:53:25;2.33;;;1.93;;
17065;SDS011;23120;52.336;21.182;2022-07-18T06:55:52;2.50;;;1.90;;
17065;SDS011;23120;52.336;21.182;2022-07-18T06:58:19;2.63;;;1.90;;
17065;SDS011;23120;52.336;21.182;2022-07-18T07:00:46;4.17;;;1.90;;
17065;SDS011;23120;52.336;21.182;2022-07-18T07:03:12;1.77;;;1.67;;
17065;SDS011;23120;52.336;21.182;2022-07-18T07:05:40;2.60;;;1.70;;
17065;SDS011;23120;52.336;21.182;2022-07-18T07:08:07;3.83;;;1.90;;
17065;SDS011;23120;52.336;21.182;2022-07-18T07:10:34;1.73;;;1.63;;
17065;SDS011;23120;52.336;21.182;2022-07-18T07:13:03;2.17;;;1.73;;
17065;SDS011;23120;52.336;21.182;2022-07-18T07:15:30;4.53;;;1.80;;
17065;SDS011;23120;52.336;21.182;2022-07-18T07:17:57;3.37;;;2.10;;
17065;SDS011;23120;52.336;21.182;2022-07-18T07:20:24;2.07;;;1.73;;
17065;SDS011;23120;52.336;21.182;2022-07-18T07:22:52;1.83;;;1.70;;
17065;SDS011;23120;52.336;21.182;2022-07-18T07:25:21;2.43;;;1.80;;
17065;SDS011;23120;52.336;21.182;2022-07-18T07:27:48;2.17;;;1.90;;
17065;SDS011;23120;52.336;21.182;2022-07-18T07:30:15;2.77;;;2.10;;
17065;SDS011;23120;52.336;21.182;2022-07-18T07:32:43;2.60;;;1.90;;
17065;SDS011;23120;52.336;21.182;2022-07-18T07:35:11;3.00;;;1.90;;
17065;SDS011;23120;52.336;21.182;2022-07-18T07:37:39;2.20;;;2.00;;
17065;SDS011;23120;52.336;21.182;2022-07-18T07:40:09;2.67;;;1.60;;
17065;SDS011;23120;52.336;21.182;2022-07-18T07:42:36;2.57;;;1.80;;
17065;SDS011;23120;52.336;21.182;2022-07-18T07:45:04;2.30;;;1.57;;
17065;SDS011;23120;52.336;21.182;2022-07-18T07:47:32;2.23;;;1.50;;
17065;SDS011;23120;52.336;21.182;2022-07-18T07:50:00;3.27;;;1.80;;
17065;SDS011;23120;52.336;21.182;2022-07-18T07:52:27;2.20;;;1.47;;
17065;SDS011;23120;52.336;21.182;2022-07-18T07:54:54;2.27;;;1.70;;
17065;SDS011;23120;52.336;21.182;2022-07-18T07:57:22;2.93;;;1.70;;
17065;SDS011;23120;52.336;21.182;2022-07-18T07:59:49;3.00;;;1.60;;
17065;SDS011;23120;52.336;21.182;2022-07-18T08:02:16;2.33;;;1.80;;
17065;SDS011;23120;52.336;21.182;2022-07-18T08:04:43;3.53;;;2.00;;
17065;SDS011;23120;52.336;21.182;2022-07-18T08:07:10;2.33;;;1.90;;
17065;SDS011;23120;52.336;21.182;2022-07-18T08:09:37;3.77;;;1.83;;
17065;SDS011;23120;52.336;21.182;2022-07-18T08:12:05;3.70;;;2.10;;
17065;SDS011;23120;52.336;21.182;2022-07-18T08:14:33;2.30;;;1.70;;
17065;SDS011;23120;52.336;21.182;2022-07-18T08:17:03;3.60;;;2.23;;
17065;SDS011;23120;52.336;21.182;2022-07-18T08:19:30;1.90;;;1.70;;
17065;SDS011;23120;52.336;21.182;2022-07-18T08:21:56;2.87;;;1.87;;
17065;SDS011;23120;52.336;21.182;2022-07-18T08:24:23;3.13;;;1.90;;
17065;SDS011;23120;52.336;21.182;2022-07-18T08:26:50;3.13;;;2.03;;
17065;SDS011;23120;52.336;21.182;2022-07-18T08:29:17;2.33;;;1.93;;
17065;SDS011;23120;52.336;21.182;2022-07-18T08:31:46;4.93;;;1.90;;
17065;SDS011;23120;52.336;21.182;2022-07-18T08:34:13;2.10;;;1.80;;
17065;SDS011;23120;52.336;21.182;2022-07-18T08:36:40;1.87;;;1.70;;
17065;SDS011;23120;52.336;21.182;2022-07-18T08:39:07;2.83;;;2.00;;
17065;SDS011;23120;52.336;21.182;2022-07-18T08:41:33;4.50;;;1.80;;
17065;SDS011;23120;52.336;21.182;2022-07-18T08:44:02;4.73;;;2.50;;
17065;SDS011;23120;52.336;21.182;2022-07-18T08:46:31;3.70;;;1.90;;
17065;SDS011;23120;52.336;21.182;2022-07-18T08:49:02;1.93;;;1.73;;
17065;SDS011;23120;52.336;21.182;2022-07-18T08:51:29;3.77;;;1.90;;
17065;SDS011;23120;52.336;21.182;2022-07-18T08:53:56;2.70;;;1.97;;
17065;SDS011;23120;52.336;21.182;2022-07-18T08:56:24;2.63;;;1.90;;
17065;SDS011;23120;52.336;21.182;2022-07-18T08:58:50;2.30;;;1.80;;
17065;SDS011;23120;52.336;21.182;2022-07-18T09:01:17;3.77;;;2.10;;
17065;SDS011;23120;52.336;21.182;2022-07-18T09:03:44;2.27;;;1.80;;
17065;SDS011;23120;52.336;21.182;2022-07-18T09:06:41;2.20;;;1.97;;
17065;SDS011;23120;52.336;21.182;2022-07-18T09:09:10;3.20;;;2.07;;
17065;SDS011;23120;52.336;21.182;2022-07-18T09:11:48;2.97;;;2.20;;
17065;SDS011;23120;52.336;21.182;2022-07-18T09:14:30;2.50;;;2.03;;
17065;SDS011;23120;52.336;21.182;2022-07-18T09:17:05;3.23;;;2.17;;
17065;SDS011;23120;52.336;21.182;2022-07-18T09:19:33;2.50;;;2.30;;
17065;SDS011;23120;52.336;21.182;2022-07-18T09:22:12;3.20;;;2.17;;
17065;SDS011;23120;52.336;21.182;2022-07-18T09:27:34;3.10;;;2.33;;
17065;SDS011;23120;52.336;21.182;2022-07-18T09:30:11;2.40;;;2.20;;
17065;SDS011;23120;52.336;21.182;2022-07-18T09:32:54;2.50;;;2.30;;
17065;SDS011;23120;52.336;21.182;2022-07-18T09:35:31;3.50;;;2.30;;
17065;SDS011;23120;52.336;21.182;2022-07-18T09:38:02;3.50;;;2.10;;
17065;SDS011;23120;52.336;21.182;2022-07-18T09:40:31;6.20;;;2.37;;
17065;SDS011;23120;52.336;21.182;2022-07-18T09:43:00;2.40;;;2.20;;
17065;SDS011;23120;52.336;21.182;2022-07-18T09:45:29;2.33;;;1.90;;
17065;SDS011;23120;52.336;21.182;2022-07-18T09:47:57;3.07;;;2.00;;
17065;SDS011;23120;52.336;21.182;2022-07-18T09:50:26;2.83;;;2.03;;
17065;SDS011;23120;52.336;21.182;2022-07-18T09:52:59;2.63;;;2.07;;
17065;SDS011;23120;52.336;21.182;2022-07-18T09:55:30;2.20;;;2.00;;
17065;SDS011;23120;52.336;21.182;2022-07-18T09:57:58;3.10;;;2.20;;
17065;SDS011;23120;52.336;21.182;2022-07-18T10:00:27;2.53;;;2.23;;
17065;SDS011;23120;52.336;21.182;2022-07-18T10:02:56;2.63;;;2.20;;
17065;SDS011;23120;52.336;21.182;2022-07-18T10:05:25;3.20;;;2.27;;
17065;SDS011;23120;52.336;21.182;2022-07-18T10:07:52;3.83;;;2.13;;
17065;SDS011;23120;52.336;21.182;2022-07-18T10:10:21;2.93;;;2.20;;
17065;SDS011;23120;52.336;21.182;2022-07-18T10:12:50;2.37;;;2.10;;
17065;SDS011;23120;52.336;21.182;2022-07-18T10:15:20;18.37;;;3.13;;
17065;SDS011;23120;52.336;21.182;2022-07-18T10:17:48;64.10;;;6.70;;
17065;SDS011;23120;52.336;21.182;2022-07-18T10:20:15;1045.43;;;96.33;;
17065;SDS011;23120;52.336;21.182;2022-07-18T10:22:43;290.00;;;23.63;;
17065;SDS011;23120;52.336;21.182;2022-07-18T10:25:11;63.40;;;7.33;;
17065;SDS011;23120;52.336;21.182;2022-07-18T10:27:50;18.93;;;3.87;;
17065;SDS011;23120;52.336;21.182;2022-07-18T10:30:28;11.73;;;3.27;;
17065;SDS011;23120;52.336;21.182;2022-07-18T10:33:00;13.60;;;3.33;;
17065;SDS011;23120;52.336;21.182;2022-07-18T10:38:29;119.90;;;12.53;;
17065;SDS011;23120;52.336;21.182;2022-07-18T10:41:03;21.83;;;4.57;;
17065;SDS011;23120;52.336;21.182;2022-07-18T10:43:34;20.40;;;3.40;;
17065;SDS011;23120;52.336;21.182;2022-07-18T10:46:03;20.98;;;3.92;;
17065;SDS011;23120;52.336;21.182;2022-07-18T10:51:31;10.68;;;2.97;;
17065;SDS011;23120;52.336;21.182;2022-07-18T10:54:03;38.33;;;6.27;;
17065;SDS011;23120;52.336;21.182;2022-07-18T11:02:34;26.90;;;4.47;;
17065;SDS011;23120;52.336;21.182;2022-07-18T11:05:03;60.58;;;5.72;;
17065;SDS011;23120;52.336;21.182;2022-07-18T11:08:17;29.60;;;4.50;;
17065;SDS011;23120;52.336;21.182;2022-07-18T11:11:04;38.80;;;4.60;;
17065;SDS011;23120;52.336;21.182;2022-07-18T11:13:33;86.22;;;7.95;;
17065;SDS011;23120;52.336;21.182;2022-07-18T11:16:03;93.88;;;8.98;;
17065;SDS011;23120;52.336;21.182;2022-07-18T11:18:32;29.23;;;4.93;;
17065;SDS011;23120;52.336;21.182;2022-07-18T11:21:00;20.67;;;3.78;;
17065;SDS011;23120;52.336;21.182;2022-07-18T11:23:27;41.25;;;5.57;;
17065;SDS011;23120;52.336;21.182;2022-07-18T11:25:55;65.78;;;7.60;;
17065;SDS011;23120;52.336;21.182;2022-07-18T11:28:24;93.43;;;8.10;;
17065;SDS011;23120;52.336;21.182;2022-07-18T11:31:02;283.92;;;21.60;;
17065;SDS011;23120;52.336;21.182;2022-07-18T11:33:32;290.48;;;23.30;;
17065;SDS011;23120;52.336;21.182;2022-07-18T11:36:04;295.63;;;24.55;;
17065;SDS011;23120;52.336;21.182;2022-07-18T11:38:32;126.15;;;12.30;;
17065;SDS011;23120;52.336;21.182;2022-07-18T11:41:01;47.72;;;7.40;;
17065;SDS011;23120;52.336;21.182;2022-07-18T11:43:29;31.58;;;6.07;;
17065;SDS011;23120;52.336;21.182;2022-07-18T11:46:00;52.08;;;5.95;;
17065;SDS011;23120;52.336;21.182;2022-07-18T11:48:30;19.88;;;3.78;;
17065;SDS011;23120;52.336;21.182;2022-07-18T11:50:57;14.82;;;3.42;;
17065;SDS011;23120;52.336;21.182;2022-07-18T11:53:25;10.93;;;3.00;;
17065;SDS011;23120;52.336;21.182;2022-07-18T11:55:55;24.23;;;4.73;;
17065;SDS011;23120;52.336;21.182;2022-07-18T11:58:22;24.55;;;3.53;;
17065;SDS011;23120;52.336;21.182;2022-07-18T12:00:49;96.60;;;10.82;;
17065;SDS011;23120;52.336;21.182;2022-07-18T12:03:17;139.45;;;13.85;;
17065;SDS011;23120;52.336;21.182;2022-07-18T12:05:46;180.18;;;18.67;;
17065;SDS011;23120;52.336;21.182;2022-07-18T12:08:24;231.23;;;20.58;;
17065;SDS011;23120;52.336;21.182;2022-07-18T12:11:03;242.15;;;21.20;;
17065;SDS011;23120;52.336;21.182;2022-07-18T12:13:48;1808.10;;;176.50;;
17065;SDS011;23120;52.336;21.182;2022-07-18T12:16:33;823.45;;;75.25;;
17065;SDS011;23120;52.336;21.182;2022-07-18T12:19:04;678.97;;;62.55;;
17065;SDS011;23120;52.336;21.182;2022-07-18T12:21:39;652.77;;;62.00;;
17065;SDS011;23120;52.336;21.182;2022-07-18T12:24:18;649.67;;;56.72;;
17065;SDS011;23120;52.336;21.182;2022-07-18T12:26:48;593.33;;;53.88;;
17065;SDS011;23120;52.336;21.182;2022-07-18T12:29:23;546.88;;;47.45;;
17065;SDS011;23120;52.336;21.182;2022-07-18T12:31:49;547.47;;;48.97;;
17065;SDS011;23120;52.336;21.182;2022-07-18T12:34:18;489.65;;;46.60;;
17065;SDS011;23120;52.336;21.182;2022-07-18T12:36:51;462.27;;;41.60;;
17065;SDS011;23120;52.336;21.182;2022-07-18T12:39:26;439.85;;;38.80;;
17065;SDS011;23120;52.336;21.182;2022-07-18T12:41:53;388.52;;;38.20;;
17065;SDS011;23120;52.336;21.182;2022-07-18T12:44:21;360.50;;;37.03;;
17065;SDS011;23120;52.336;21.182;2022-07-18T12:46:48;359.02;;;36.95;;
17065;SDS011;23120;52.336;21.182;2022-07-18T12:49:14;363.23;;;35.75;;
17065;SDS011;23120;52.336;21.182;2022-07-18T12:51:42;306.40;;;33.33;;
17065;SDS011;23120;52.336;21.182;2022-07-18T12:54:13;299.25;;;29.60;;
17065;SDS011;23120;52.336;21.182;2022-07-18T12:56:40;291.70;;;30.43;;
17065;SDS011;23120;52.336;21.182;2022-07-18T12:59:06;264.00;;;27.42;;
17065;SDS011;23120;52.336;21.182;2022-07-18T13:01:36;250.82;;;27.50;;
17065;SDS011;23120;52.336;21.182;2022-07-18T13:04:03;264.13;;;27.80;;
17065;SDS011;23120;52.336;21.182;2022-07-18T13:06:30;230.60;;;23.83;;
17065;SDS011;23120;52.336;21.182;2022-07-18T13:09:01;226.48;;;25.27;;
17065;SDS011;23120;52.336;21.182;2022-07-18T13:11:27;195.50;;;22.42;;
17065;SDS011;23120;52.336;21.182;2022-07-18T13:13:54;192.13;;;23.75;;
17065;SDS011;23120;52.336;21.182;2022-07-18T13:16:21;196.23;;;22.20;;
17065;SDS011;23120;52.336;21.182;2022-07-18T13:18:49;174.27;;;21.83;;
17065;SDS011;23120;52.336;21.182;2022-07-18T13:21:15;167.25;;;18.70;;
17065;SDS011;23120;52.336;21.182;2022-07-18T13:23:43;186.80;;;22.10;;
17065;SDS011;23120;52.336;21.182;2022-07-18T13:26:11;133.77;;;18.37;;
17065;SDS011;23120;52.336;21.182;2022-07-18T13:28:38;163.98;;;18.50;;
17065;SDS011;23120;52.336;21.182;2022-07-18T13:31:05;142.85;;;18.48;;
17065;SDS011;23120;52.336;21.182;2022-07-18T13:33:32;133.48;;;18.08;;
17065;SDS011;23120;52.336;21.182;2022-07-18T13:36:00;134.52;;;16.25;;
17065;SDS011;23120;52.336;21.182;2022-07-18T13:38:27;125.63;;;15.48;;
17065;SDS011;23120;52.336;21.182;2022-07-18T13:40:54;119.40;;;15.97;;
17065;SDS011;23120;52.336;21.182;2022-07-18T13:43:23;118.30;;;15.30;;
17065;SDS011;23120;52.336;21.182;2022-07-18T13:45:50;119.90;;;15.40;;
17065;SDS011;23120;52.336;21.182;2022-07-18T13:48:17;110.70;;;15.70;;
17065;SDS011;23120;52.336;21.182;2022-07-18T13:50:43;107.47;;;15.00;;
17065;SDS011;23120;52.336;21.182;2022-07-18T13:53:10;94.57;;;13.95;;
17065;SDS011;23120;52.336;21.182;2022-07-18T13:55:37;93.67;;;12.27;;
17065;SDS011;23120;52.336;21.182;2022-07-18T13:58:04;85.57;;;11.70;;
17065;SDS011;23120;52.336;21.182;2022-07-18T14:00:32;83.03;;;12.70;;
17065;SDS011;23120;52.336;21.182;2022-07-18T14:02:59;89.32;;;13.05;;
17065;SDS011;23120;52.336;21.182;2022-07-18T14:05:25;79.18;;;11.57;;
17065;SDS011;23120;52.336;21.182;2022-07-18T14:07:52;72.87;;;11.57;;
17065;SDS011;23120;52.336;21.182;2022-07-18T14:10:19;74.15;;;11.80;;
17065;SDS011;23120;52.336;21.182;2022-07-18T14:12:46;81.82;;;12.50;;
17065;SDS011;23120;52.336;21.182;2022-07-18T14:15:13;64.67;;;10.43;;
17065;SDS011;23120;52.336;21.182;2022-07-18T14:17:41;60.50;;;10.43;;
17065;SDS011;23120;52.336;21.182;2022-07-18T14:20:09;65.57;;;10.90;;
17065;SDS011;23120;52.336;21.182;2022-07-18T14:22:37;63.90;;;9.87;;
17065;SDS011;23120;52.336;21.182;2022-07-18T14:25:05;49.08;;;8.73;;
17065;SDS011;23120;52.336;21.182;2022-07-18T14:27:34;54.78;;;9.00;;
17065;SDS011;23120;52.336;21.182;2022-07-18T14:30:01;39.03;;;8.40;;
17065;SDS011;23120;52.336;21.182;2022-07-18T14:32:28;52.80;;;8.03;;
17065;SDS011;23120;52.336;21.182;2022-07-18T14:34:56;39.25;;;8.18;;
17065;SDS011;23120;52.336;21.182;2022-07-18T14:37:23;43.80;;;7.80;;
17065;SDS011;23120;52.336;21.182;2022-07-18T14:39:50;40.40;;;8.37;;
17065;SDS011;23120;52.336;21.182;2022-07-18T14:42:18;44.05;;;8.35;;
17065;SDS011;23120;52.336;21.182;2022-07-18T14:44:45;30.52;;;6.35;;
17065;SDS011;23120;52.336;21.182;2022-07-18T14:47:12;39.93;;;7.43;;